createdAt,value
2022-12-03T00:00:09.019Z,19.5
2022-12-03T00:05:05.087Z,23.6
2022-12-03T00:10:05.090Z,18.5
2022-12-03T00:15:05.097Z,19.2
2022-12-03T00:20:05.086Z,19.1
2022-12-03T00:25:05.095Z,19.1
2022-12-03T00:30:05.087Z,18.9
2022-12-03T00:35:05.087Z,18.1
2022-12-03T00:40:05.087Z,18.7
2022-12-03T00:45:05.100Z,20.1
2022-12-03T00:50:05.084Z,17.2
2022-12-03T00:55:05.102Z,17.2
2022-12-03T01:00:05.087Z,18
2022-12-03T01:05:05.268Z,18.3
2022-12-03T01:10:05.091Z,18.2
2022-12-03T01:15:05.086Z,17.1
2022-12-03T01:20:05.089Z,18.7
2022-12-03T01:25:05.094Z,18.7
2022-12-03T01:30:05.088Z,17.3
2022-12-03T01:35:05.105Z,17.1
2022-12-03T01:40:05.090Z,15.9
2022-12-03T01:45:05.121Z,18.7
2022-12-03T01:50:05.094Z,18.7
2022-12-03T01:55:05.103Z,18.7
2022-12-03T02:00:05.105Z,19.5
2022-12-03T02:05:05.088Z,16.4
2022-12-03T02:10:05.082Z,15.7
2022-12-03T02:15:05.090Z,17.5
2022-12-03T02:20:05.090Z,16.6
2022-12-03T02:25:05.088Z,16.6
2022-12-03T02:30:05.100Z,15.3
2022-12-03T02:35:05.102Z,16.4
2022-12-03T02:40:05.088Z,16.1
2022-12-03T02:45:05.822Z,15.5
2022-12-03T02:50:05.091Z,15.7
2022-12-03T02:55:05.102Z,15.7
2022-12-03T03:00:05.091Z,16
2022-12-03T03:05:05.095Z,17
2022-12-03T03:10:05.092Z,15.9
2022-12-03T03:15:05.094Z,16.7
2022-12-03T03:20:05.102Z,18.4
2022-12-03T03:25:05.097Z,18.4
2022-12-03T03:30:05.098Z,16.6
2022-12-03T03:35:05.104Z,16.7
2022-12-03T03:40:05.105Z,16.4
2022-12-03T03:45:05.100Z,18.4
2022-12-03T03:50:05.083Z,17.3
2022-12-03T03:55:05.107Z,17.3
2022-12-03T04:00:05.094Z,18
2022-12-03T04:05:05.103Z,17.1
2022-12-03T04:10:05.097Z,18.7
2022-12-03T04:15:05.090Z,17.3
2022-12-03T04:20:05.101Z,17.5
2022-12-03T04:25:05.087Z,17.5
2022-12-03T04:30:05.088Z,17.8
2022-12-03T04:35:05.129Z,17.3
2022-12-03T04:40:05.081Z,17.9
2022-12-03T04:45:05.136Z,18.7
2022-12-03T04:50:05.094Z,18
2022-12-03T04:55:05.094Z,18
2022-12-03T05:00:05.098Z,18.5
2022-12-03T05:05:05.094Z,18.1
2022-12-03T05:10:05.084Z,18.1
2022-12-03T05:15:05.093Z,20.1
2022-12-03T05:20:05.083Z,19.6
2022-12-03T05:25:05.099Z,19.6
2022-12-03T05:30:05.083Z,18.9
2022-12-03T05:35:05.086Z,19.9
2022-12-03T05:40:05.080Z,18.6
2022-12-03T05:45:05.089Z,17.4
2022-12-03T05:50:05.085Z,17.8
2022-12-03T05:55:05.108Z,17.8
2022-12-03T06:00:05.091Z,18.6
2022-12-03T06:05:05.085Z,19.1
2022-12-03T06:10:05.110Z,18.9
2022-12-03T06:15:05.193Z,18.6
2022-12-03T06:20:05.094Z,17.5
2022-12-03T06:25:06.853Z,17.5
2022-12-03T06:30:05.086Z,17.7
2022-12-03T06:35:05.094Z,17.1
2022-12-03T06:40:05.093Z,17.9
2022-12-03T06:45:05.094Z,18
2022-12-03T06:50:05.092Z,17.5
2022-12-03T06:55:05.090Z,17.5
2022-12-03T07:00:05.085Z,17.6
2022-12-03T07:05:05.094Z,17.7
2022-12-03T07:10:05.079Z,20.2
2022-12-03T07:15:05.087Z,17.9
2022-12-03T07:20:05.091Z,18.6
2022-12-03T07:25:05.097Z,18.6
2022-12-03T07:30:05.093Z,18
2022-12-03T07:35:05.104Z,21.2
2022-12-03T07:40:05.104Z,19.9
2022-12-03T07:45:05.100Z,20.8
2022-12-03T07:50:05.088Z,21.4
2022-12-03T07:55:05.098Z,21.4
2022-12-03T08:00:05.087Z,18.7
2022-12-03T08:05:05.160Z,19.6
2022-12-03T08:10:05.098Z,20.9
2022-12-03T08:15:05.087Z,20.4
2022-12-03T08:20:05.094Z,22.1
2022-12-03T08:25:05.108Z,22.1
2022-12-03T08:30:05.100Z,22.5
2022-12-03T08:35:05.097Z,21.7
2022-12-03T08:40:05.095Z,24.7
2022-12-03T08:45:05.098Z,22.8
2022-12-03T08:50:05.075Z,23
2022-12-03T08:55:05.090Z,23
2022-12-03T09:00:05.082Z,23.7
2022-12-03T09:05:05.086Z,24.2
2022-12-03T09:10:05.086Z,24
2022-12-03T09:15:05.099Z,23.7
2022-12-03T09:20:05.101Z,24
2022-12-03T09:25:05.091Z,24
2022-12-03T09:30:05.089Z,24.6
2022-12-03T09:35:05.084Z,24.3
2022-12-03T09:40:05.094Z,24.2
2022-12-03T09:45:05.091Z,23.2
2022-12-03T09:50:05.147Z,23.5
2022-12-03T09:55:05.148Z,23.5
2022-12-03T10:00:05.082Z,22.9
2022-12-03T10:05:05.176Z,24.4
2022-12-03T10:10:05.081Z,25.3
2022-12-03T10:15:05.094Z,24.6
2022-12-03T10:20:05.084Z,23.4
2022-12-03T10:25:05.090Z,23.4
2022-12-03T10:30:05.091Z,24.4
2022-12-03T10:35:05.095Z,35.2
2022-12-03T10:40:05.098Z,23.2
2022-12-03T10:45:05.093Z,23.3
2022-12-03T10:50:05.086Z,23.7
2022-12-03T10:55:05.096Z,23.7
2022-12-03T11:00:05.091Z,24.6
2022-12-03T11:05:05.095Z,22.6
2022-12-03T11:10:05.088Z,24.6
2022-12-03T11:15:05.122Z,24.1
2022-12-03T11:20:05.091Z,23.4
2022-12-03T11:25:05.108Z,23.4
2022-12-03T11:30:05.099Z,22.4
2022-12-03T11:35:05.097Z,22.7
2022-12-03T11:40:05.083Z,23.3
2022-12-03T11:45:05.099Z,23.1
2022-12-03T11:50:05.094Z,22.4
2022-12-03T11:55:05.090Z,22.4
2022-12-03T12:00:05.087Z,22
2022-12-03T12:05:05.089Z,22.7
2022-12-03T12:10:05.090Z,23.2
2022-12-03T12:15:05.102Z,23.1
2022-12-03T12:20:05.088Z,21.7
2022-12-03T12:25:05.094Z,21.7
2022-12-03T12:30:05.088Z,22
2022-12-03T12:35:05.093Z,22
2022-12-03T12:40:05.089Z,22.8
2022-12-03T12:45:05.101Z,22.6
2022-12-03T12:50:05.100Z,22.1
2022-12-03T12:55:05.481Z,22.1
2022-12-03T13:00:05.085Z,23.4
2022-12-03T13:05:05.088Z,21.1
2022-12-03T13:10:05.092Z,21.8
2022-12-03T13:15:05.088Z,20.1
2022-12-03T13:20:07.826Z,19.4
2022-12-03T13:25:05.090Z,19.4
2022-12-03T13:30:05.084Z,20
2022-12-03T13:35:05.089Z,17.2
2022-12-03T13:40:05.106Z,16.3
2022-12-03T13:45:05.085Z,15.4
2022-12-03T13:50:05.101Z,19.1
2022-12-03T13:55:05.097Z,19.1
2022-12-03T14:00:05.128Z,15.4
2022-12-03T14:05:05.095Z,15.8
2022-12-03T14:10:05.081Z,18
2022-12-03T14:15:05.101Z,19.7
2022-12-03T14:20:05.085Z,18.3
2022-12-03T14:25:05.100Z,18.3
2022-12-03T14:30:05.079Z,18.8
2022-12-03T14:35:09.633Z,19
2022-12-03T14:40:05.088Z,20.2
2022-12-03T14:45:05.083Z,18.2
2022-12-03T14:50:05.095Z,18.4
2022-12-03T14:55:05.094Z,18.4
2022-12-03T15:00:05.081Z,18.9
2022-12-03T15:05:05.090Z,17
2022-12-03T15:10:05.105Z,17.4
2022-12-03T15:15:05.092Z,16.3
2022-12-03T15:20:05.088Z,17.9
2022-12-03T15:25:05.097Z,17.9
2022-12-03T15:30:05.181Z,17.6
2022-12-03T15:35:05.101Z,17.7
2022-12-03T15:40:05.113Z,16.7
2022-12-03T15:45:05.091Z,15.9
2022-12-03T15:50:05.120Z,14.9
2022-12-03T15:55:05.099Z,14.9
2022-12-03T16:00:05.089Z,15.8
2022-12-03T16:05:05.095Z,15.3
2022-12-03T16:10:05.092Z,13.5
2022-12-03T16:15:05.095Z,15.2
2022-12-03T16:20:05.084Z,13.9
2022-12-03T16:25:05.094Z,13.9
2022-12-03T16:30:05.082Z,13.6
2022-12-03T16:35:05.113Z,13.7
2022-12-03T16:40:05.083Z,14.4
2022-12-03T16:45:05.094Z,14.6
2022-12-03T16:50:05.088Z,14.8
2022-12-03T16:55:05.095Z,14.8
2022-12-03T17:00:05.090Z,14.3
2022-12-03T17:05:05.095Z,14.8
2022-12-03T17:10:05.088Z,13.7
2022-12-03T17:15:05.087Z,14.5
2022-12-03T17:20:05.089Z,14.5
2022-12-03T17:25:05.091Z,14.5
2022-12-03T17:30:05.090Z,14.5
2022-12-03T17:35:05.093Z,13.8
2022-12-03T17:40:05.152Z,13.9
2022-12-03T17:45:05.092Z,13.3
2022-12-03T17:50:05.102Z,14.3
2022-12-03T17:55:17.979Z,14.3
2022-12-03T18:00:05.091Z,14.5
2022-12-03T18:05:05.091Z,15.2
2022-12-03T18:10:05.089Z,13.8
2022-12-03T18:15:05.114Z,15.2
2022-12-03T18:20:05.094Z,14.1
2022-12-03T18:25:05.094Z,14.1
2022-12-03T18:30:05.083Z,14.6
2022-12-03T18:35:05.101Z,14.8
2022-12-03T18:40:12.329Z,13.6
2022-12-03T18:45:05.096Z,14.3
2022-12-03T18:50:05.110Z,14.5
2022-12-03T18:55:05.151Z,14.5
2022-12-03T19:00:07.899Z,15.7
2022-12-03T19:05:05.108Z,15.6
2022-12-03T19:10:05.098Z,14.7
2022-12-03T19:15:05.096Z,15.1
2022-12-03T19:20:05.098Z,14.7
2022-12-03T19:25:05.090Z,14.7
2022-12-03T19:30:05.088Z,13.2
2022-12-03T19:35:05.338Z,13.4
2022-12-03T19:40:05.087Z,10.3
2022-12-03T19:45:05.091Z,11.3
2022-12-03T19:50:05.097Z,12.6
2022-12-03T19:55:05.091Z,12.6
2022-12-03T20:00:05.083Z,12.8
2022-12-03T20:05:05.098Z,13
2022-12-03T20:10:05.081Z,13.8
2022-12-03T20:15:05.096Z,14
2022-12-03T20:20:05.091Z,14.5
2022-12-03T20:25:05.087Z,14.5
2022-12-03T20:30:05.079Z,12.6
2022-12-03T20:35:05.083Z,13.7
2022-12-03T20:40:05.091Z,13.3
2022-12-03T20:45:05.090Z,12.8
2022-12-03T20:50:05.090Z,13.4
2022-12-03T20:55:05.143Z,13.4
2022-12-03T21:00:05.096Z,13.9
2022-12-03T21:05:05.088Z,12
2022-12-03T21:10:05.081Z,13.3
2022-12-03T21:15:05.094Z,11.2
2022-12-03T21:20:05.090Z,12.7
2022-12-03T21:25:05.098Z,12.7
2022-12-03T21:30:05.087Z,13.4
2022-12-03T21:35:05.177Z,13.2
2022-12-03T21:40:05.092Z,14
2022-12-03T21:45:05.104Z,13.8
2022-12-03T21:50:05.081Z,12.8
2022-12-03T21:55:05.096Z,12.8
2022-12-03T22:00:05.088Z,12.7
2022-12-03T22:05:05.087Z,13.5
2022-12-03T22:10:05.090Z,14.3
2022-12-03T22:15:05.096Z,11.3
2022-12-03T22:20:05.080Z,13.6
2022-12-03T22:25:05.095Z,13.6
2022-12-03T22:30:05.089Z,14.1
2022-12-03T22:35:05.135Z,13.8
2022-12-03T22:40:05.104Z,14.2
2022-12-03T22:45:05.093Z,13.4
2022-12-03T22:50:05.091Z,14
2022-12-03T22:55:05.108Z,14
2022-12-03T23:00:05.094Z,16
2022-12-03T23:05:05.094Z,14.2
2022-12-03T23:10:05.089Z,14.9
2022-12-03T23:15:05.083Z,15.3
2022-12-03T23:20:05.087Z,12.8
2022-12-03T23:25:05.095Z,12.8
2022-12-03T23:30:05.092Z,14.6
2022-12-03T23:35:05.117Z,15
2022-12-03T23:40:05.088Z,14.5
2022-12-03T23:45:05.091Z,13.3
2022-12-03T23:50:05.089Z,15.2
2022-12-03T23:55:05.167Z,15.2
